Inicio METAR Ruta Wind Satelite

Informe Meteorológico

Fecha: 2020/07/13 03:50:26 Local
2020.07.13 08:50 UTC


Estado: VENCIDO
Operación:
Station name not available
Dec 04, 2019 - 11:00 PM EST / 2019.12.05 0400 UTC
Wind: from the NNE (020 degrees) at 3 MPH (3 KT) (direction variable):0
Visibility: greater than 7 mile(s):0
Sky conditions: mostly cloudy
Temperature: 77 F (25 C)
Dew Point: 75 F (24 C)
Relative Humidity: 94%
Pressure (altimeter): 29.83 in. Hg (1010 hPa)
ob: SKPD 050400Z AUTO 02003KT 310V060 9999 SCT012/// SCT015/// BKN017/// 25/24 Q1010
cycle: 4